sensor_id;sensor_type;location;lat;lon;timestamp;P1;durP1;ratioP1;P2;durP2;ratioP2
10031;SDS011;5056;44.272;19.892;2023-02-15T00:01:55;89.10;;;57.57;;
10031;SDS011;5056;44.272;19.892;2023-02-15T00:04:25;91.37;;;56.77;;
10031;SDS011;5056;44.272;19.892;2023-02-15T00:07:11;94.53;;;57.93;;
10031;SDS011;5056;44.272;19.892;2023-02-15T00:09:39;95.70;;;58.13;;
10031;SDS011;5056;44.272;19.892;2023-02-15T00:12:06;99.20;;;60.53;;
10031;SDS011;5056;44.272;19.892;2023-02-15T00:14:35;102.23;;;60.37;;
10031;SDS011;5056;44.272;19.892;2023-02-15T00:17:05;93.57;;;59.20;;
10031;SDS011;5056;44.272;19.892;2023-02-15T00:19:32;86.87;;;53.87;;
10031;SDS011;5056;44.272;19.892;2023-02-15T00:21:58;83.57;;;52.40;;
10031;SDS011;5056;44.272;19.892;2023-02-15T00:24:28;85.07;;;51.23;;
10031;SDS011;5056;44.272;19.892;2023-02-15T00:26:58;74.43;;;48.83;;
10031;SDS011;5056;44.272;19.892;2023-02-15T00:29:25;70.90;;;44.53;;
10031;SDS011;5056;44.272;19.892;2023-02-15T00:31:53;68.90;;;45.73;;
10031;SDS011;5056;44.272;19.892;2023-02-15T00:34:23;81.10;;;49.07;;
10031;SDS011;5056;44.272;19.892;2023-02-15T00:36:53;73.50;;;47.37;;
10031;SDS011;5056;44.272;19.892;2023-02-15T00:39:22;72.70;;;46.87;;
10031;SDS011;5056;44.272;19.892;2023-02-15T00:41:49;69.23;;;45.07;;
10031;SDS011;5056;44.272;19.892;2023-02-15T00:44:16;78.10;;;45.10;;
10031;SDS011;5056;44.272;19.892;2023-02-15T00:46:45;68.73;;;43.47;;
10031;SDS011;5056;44.272;19.892;2023-02-15T00:49:14;73.03;;;46.57;;
10031;SDS011;5056;44.272;19.892;2023-02-15T00:51:42;72.07;;;44.77;;
10031;SDS011;5056;44.272;19.892;2023-02-15T00:57:03;85.67;;;51.33;;
10031;SDS011;5056;44.272;19.892;2023-02-15T00:59:30;105.57;;;55.47;;
10031;SDS011;5056;44.272;19.892;2023-02-15T01:01:57;92.47;;;55.03;;
10031;SDS011;5056;44.272;19.892;2023-02-15T01:04:24;98.77;;;57.73;;
10031;SDS011;5056;44.272;19.892;2023-02-15T01:06:52;106.93;;;63.17;;
10031;SDS011;5056;44.272;19.892;2023-02-15T01:12:14;119.07;;;71.53;;
10031;SDS011;5056;44.272;19.892;2023-02-15T01:14:40;120.37;;;71.67;;
10031;SDS011;5056;44.272;19.892;2023-02-15T01:17:16;113.20;;;68.50;;
10031;SDS011;5056;44.272;19.892;2023-02-15T01:19:43;117.10;;;65.67;;
10031;SDS011;5056;44.272;19.892;2023-02-15T01:22:31;109.37;;;63.97;;
10031;SDS011;5056;44.272;19.892;2023-02-15T01:24:58;113.13;;;64.53;;
10031;SDS011;5056;44.272;19.892;2023-02-15T01:27:25;108.43;;;64.07;;
10031;SDS011;5056;44.272;19.892;2023-02-15T01:29:55;112.10;;;65.60;;
10031;SDS011;5056;44.272;19.892;2023-02-15T01:32:22;107.60;;;64.13;;
10031;SDS011;5056;44.272;19.892;2023-02-15T01:34:49;110.93;;;64.73;;
10031;SDS011;5056;44.272;19.892;2023-02-15T01:37:16;109.13;;;65.93;;
10031;SDS011;5056;44.272;19.892;2023-02-15T01:39:44;114.60;;;68.03;;
10031;SDS011;5056;44.272;19.892;2023-02-15T01:42:12;103.50;;;64.60;;
10031;SDS011;5056;44.272;19.892;2023-02-15T01:44:47;122.00;;;73.67;;
10031;SDS011;5056;44.272;19.892;2023-02-15T01:47:22;140.23;;;78.73;;
10031;SDS011;5056;44.272;19.892;2023-02-15T01:49:52;136.10;;;76.17;;
10031;SDS011;5056;44.272;19.892;2023-02-15T01:52:27;115.40;;;68.93;;
10031;SDS011;5056;44.272;19.892;2023-02-15T01:54:57;96.37;;;58.60;;
10031;SDS011;5056;44.272;19.892;2023-02-15T02:00:04;78.07;;;48.30;;
10031;SDS011;5056;44.272;19.892;2023-02-15T02:02:33;75.87;;;47.33;;
10031;SDS011;5056;44.272;19.892;2023-02-15T02:05:01;82.00;;;48.97;;
10031;SDS011;5056;44.272;19.892;2023-02-15T02:07:35;76.70;;;50.50;;
10031;SDS011;5056;44.272;19.892;2023-02-15T02:10:08;88.27;;;52.33;;
10031;SDS011;5056;44.272;19.892;2023-02-15T02:12:37;85.43;;;50.50;;
10031;SDS011;5056;44.272;19.892;2023-02-15T02:15:09;78.67;;;48.00;;
10031;SDS011;5056;44.272;19.892;2023-02-15T02:17:39;78.37;;;48.30;;
10031;SDS011;5056;44.272;19.892;2023-02-15T02:20:20;77.97;;;48.87;;
10031;SDS011;5056;44.272;19.892;2023-02-15T02:32:15;69.03;;;44.87;;
10031;SDS011;5056;44.272;19.892;2023-02-15T02:34:56;73.97;;;45.63;;
10031;SDS011;5056;44.272;19.892;2023-02-15T02:37:28;67.37;;;44.30;;
10031;SDS011;5056;44.272;19.892;2023-02-15T02:39:59;65.33;;;41.07;;
10031;SDS011;5056;44.272;19.892;2023-02-15T02:42:32;63.50;;;41.57;;
10031;SDS011;5056;44.272;19.892;2023-02-15T02:45:05;62.10;;;41.07;;
10031;SDS011;5056;44.272;19.892;2023-02-15T02:47:36;62.50;;;41.47;;
10031;SDS011;5056;44.272;19.892;2023-02-15T02:50:11;63.17;;;42.00;;
10031;SDS011;5056;44.272;19.892;2023-02-15T02:52:40;60.37;;;40.07;;
10031;SDS011;5056;44.272;19.892;2023-02-15T02:55:11;54.00;;;37.87;;
10031;SDS011;5056;44.272;19.892;2023-02-15T02:57:47;58.17;;;39.10;;
10031;SDS011;5056;44.272;19.892;2023-02-15T03:00:18;56.87;;;38.97;;
10031;SDS011;5056;44.272;19.892;2023-02-15T03:02:46;59.47;;;40.37;;
10031;SDS011;5056;44.272;19.892;2023-02-15T03:05:20;59.37;;;41.73;;
10031;SDS011;5056;44.272;19.892;2023-02-15T03:07:50;67.20;;;44.47;;
10031;SDS011;5056;44.272;19.892;2023-02-15T03:10:18;70.20;;;45.37;;
10031;SDS011;5056;44.272;19.892;2023-02-15T03:12:47;72.50;;;46.33;;
10031;SDS011;5056;44.272;19.892;2023-02-15T03:15:16;73.73;;;46.47;;
10031;SDS011;5056;44.272;19.892;2023-02-15T03:17:46;73.80;;;45.13;;
10031;SDS011;5056;44.272;19.892;2023-02-15T03:20:14;65.63;;;41.73;;
10031;SDS011;5056;44.272;19.892;2023-02-15T03:22:46;62.33;;;39.40;;
10031;SDS011;5056;44.272;19.892;2023-02-15T03:25:16;60.53;;;39.60;;
10031;SDS011;5056;44.272;19.892;2023-02-15T03:27:45;63.23;;;40.73;;
10031;SDS011;5056;44.272;19.892;2023-02-15T03:30:30;74.90;;;45.33;;
10031;SDS011;5056;44.272;19.892;2023-02-15T03:32:58;83.77;;;49.77;;
10031;SDS011;5056;44.272;19.892;2023-02-15T03:35:26;69.37;;;45.40;;
10031;SDS011;5056;44.272;19.892;2023-02-15T03:37:59;66.30;;;41.87;;
10031;SDS011;5056;44.272;19.892;2023-02-15T03:40:28;72.17;;;45.20;;
10031;SDS011;5056;44.272;19.892;2023-02-15T03:43:14;72.07;;;44.47;;
10031;SDS011;5056;44.272;19.892;2023-02-15T03:45:46;63.97;;;41.47;;
10031;SDS011;5056;44.272;19.892;2023-02-15T03:48:21;60.87;;;41.13;;
10031;SDS011;5056;44.272;19.892;2023-02-15T03:50:52;64.37;;;41.43;;
10031;SDS011;5056;44.272;19.892;2023-02-15T03:53:42;59.23;;;38.70;;
10031;SDS011;5056;44.272;19.892;2023-02-15T03:56:09;56.07;;;37.23;;
10031;SDS011;5056;44.272;19.892;2023-02-15T03:58:36;55.20;;;35.17;;
10031;SDS011;5056;44.272;19.892;2023-02-15T04:01:22;46.57;;;31.43;;
10031;SDS011;5056;44.272;19.892;2023-02-15T04:04:10;48.77;;;33.03;;
10031;SDS011;5056;44.272;19.892;2023-02-15T04:06:40;44.07;;;30.73;;
10031;SDS011;5056;44.272;19.892;2023-02-15T04:09:09;44.47;;;29.37;;
10031;SDS011;5056;44.272;19.892;2023-02-15T04:11:53;38.97;;;27.47;;
10031;SDS011;5056;44.272;19.892;2023-02-15T04:17:22;40.37;;;28.97;;
10031;SDS011;5056;44.272;19.892;2023-02-15T04:19:49;46.63;;;30.50;;
10031;SDS011;5056;44.272;19.892;2023-02-15T04:22:34;42.20;;;29.87;;
10031;SDS011;5056;44.272;19.892;2023-02-15T04:25:19;41.57;;;28.03;;
10031;SDS011;5056;44.272;19.892;2023-02-15T04:27:47;41.10;;;28.57;;
10031;SDS011;5056;44.272;19.892;2023-02-15T04:30:17;42.13;;;27.93;;
10031;SDS011;5056;44.272;19.892;2023-02-15T04:32:45;38.97;;;28.63;;
10031;SDS011;5056;44.272;19.892;2023-02-15T04:35:12;41.27;;;28.33;;
10031;SDS011;5056;44.272;19.892;2023-02-15T04:37:52;42.97;;;29.07;;
10031;SDS011;5056;44.272;19.892;2023-02-15T04:40:21;33.10;;;25.63;;
10031;SDS011;5056;44.272;19.892;2023-02-15T04:42:47;37.30;;;26.87;;
10031;SDS011;5056;44.272;19.892;2023-02-15T04:45:15;35.37;;;26.67;;
10031;SDS011;5056;44.272;19.892;2023-02-15T04:47:42;35.77;;;28.17;;
10031;SDS011;5056;44.272;19.892;2023-02-15T04:50:09;31.33;;;24.27;;
10031;SDS011;5056;44.272;19.892;2023-02-15T04:52:37;33.60;;;24.07;;
10031;SDS011;5056;44.272;19.892;2023-02-15T04:55:04;29.23;;;22.80;;
10031;SDS011;5056;44.272;19.892;2023-02-15T04:57:34;32.77;;;23.63;;
10031;SDS011;5056;44.272;19.892;2023-02-15T05:00:00;35.57;;;24.53;;
10031;SDS011;5056;44.272;19.892;2023-02-15T05:02:27;29.13;;;22.37;;
10031;SDS011;5056;44.272;19.892;2023-02-15T05:04:54;33.70;;;24.07;;
10031;SDS011;5056;44.272;19.892;2023-02-15T05:07:21;31.13;;;23.90;;
10031;SDS011;5056;44.272;19.892;2023-02-15T05:09:48;33.50;;;24.43;;
10031;SDS011;5056;44.272;19.892;2023-02-15T05:12:15;35.33;;;25.47;;
10031;SDS011;5056;44.272;19.892;2023-02-15T05:14:43;39.90;;;26.17;;
10031;SDS011;5056;44.272;19.892;2023-02-15T05:17:09;37.10;;;27.93;;
10031;SDS011;5056;44.272;19.892;2023-02-15T05:19:36;39.00;;;27.80;;
10031;SDS011;5056;44.272;19.892;2023-02-15T05:22:03;37.77;;;26.23;;
10031;SDS011;5056;44.272;19.892;2023-02-15T05:24:30;33.77;;;24.50;;
10031;SDS011;5056;44.272;19.892;2023-02-15T05:27:15;33.23;;;26.33;;
10031;SDS011;5056;44.272;19.892;2023-02-15T05:30:02;38.20;;;26.70;;
10031;SDS011;5056;44.272;19.892;2023-02-15T05:32:30;39.87;;;27.63;;
10031;SDS011;5056;44.272;19.892;2023-02-15T05:34:56;38.70;;;27.17;;
10031;SDS011;5056;44.272;19.892;2023-02-15T05:37:23;37.53;;;27.50;;
10031;SDS011;5056;44.272;19.892;2023-02-15T05:42:39;39.67;;;30.57;;
10031;SDS011;5056;44.272;19.892;2023-02-15T05:45:08;68.73;;;46.27;;
10031;SDS011;5056;44.272;19.892;2023-02-15T05:47:35;52.27;;;37.33;;
10031;SDS011;5056;44.272;19.892;2023-02-15T05:50:02;47.93;;;31.83;;
10031;SDS011;5056;44.272;19.892;2023-02-15T05:52:29;42.23;;;29.23;;
10031;SDS011;5056;44.272;19.892;2023-02-15T05:54:55;37.63;;;28.90;;
10031;SDS011;5056;44.272;19.892;2023-02-15T05:57:33;43.87;;;28.93;;
10031;SDS011;5056;44.272;19.892;2023-02-15T06:00:11;40.53;;;29.37;;
10031;SDS011;5056;44.272;19.892;2023-02-15T06:02:41;39.47;;;28.57;;
10031;SDS011;5056;44.272;19.892;2023-02-15T06:05:08;40.67;;;29.10;;
10031;SDS011;5056;44.272;19.892;2023-02-15T06:07:43;40.40;;;29.73;;
10031;SDS011;5056;44.272;19.892;2023-02-15T06:10:12;42.97;;;31.17;;
10031;SDS011;5056;44.272;19.892;2023-02-15T06:12:39;51.23;;;33.93;;
10031;SDS011;5056;44.272;19.892;2023-02-15T06:15:07;52.33;;;36.00;;
10031;SDS011;5056;44.272;19.892;2023-02-15T06:17:36;58.87;;;39.23;;
10031;SDS011;5056;44.272;19.892;2023-02-15T06:20:03;61.50;;;39.80;;
10031;SDS011;5056;44.272;19.892;2023-02-15T06:22:31;63.70;;;44.13;;
10031;SDS011;5056;44.272;19.892;2023-02-15T06:24:58;76.97;;;51.57;;
10031;SDS011;5056;44.272;19.892;2023-02-15T06:27:24;92.23;;;58.13;;
10031;SDS011;5056;44.272;19.892;2023-02-15T06:29:52;84.53;;;55.67;;
10031;SDS011;5056;44.272;19.892;2023-02-15T06:32:19;88.93;;;57.33;;
10031;SDS011;5056;44.272;19.892;2023-02-15T06:34:49;90.63;;;60.50;;
10031;SDS011;5056;44.272;19.892;2023-02-15T06:37:16;91.63;;;59.77;;
10031;SDS011;5056;44.272;19.892;2023-02-15T06:39:43;97.40;;;61.83;;
10031;SDS011;5056;44.272;19.892;2023-02-15T06:42:10;99.60;;;65.50;;
10031;SDS011;5056;44.272;19.892;2023-02-15T06:44:37;103.73;;;66.63;;
10031;SDS011;5056;44.272;19.892;2023-02-15T06:47:05;105.03;;;70.10;;
10031;SDS011;5056;44.272;19.892;2023-02-15T06:49:32;110.57;;;67.70;;
10031;SDS011;5056;44.272;19.892;2023-02-15T06:52:01;106.27;;;70.07;;
10031;SDS011;5056;44.272;19.892;2023-02-15T06:54:28;99.20;;;65.80;;
10031;SDS011;5056;44.272;19.892;2023-02-15T06:56:55;80.93;;;53.87;;
10031;SDS011;5056;44.272;19.892;2023-02-15T06:59:22;70.93;;;49.00;;
10031;SDS011;5056;44.272;19.892;2023-02-15T07:01:49;81.70;;;53.23;;
10031;SDS011;5056;44.272;19.892;2023-02-15T07:04:16;79.83;;;54.27;;
10031;SDS011;5056;44.272;19.892;2023-02-15T07:06:42;84.10;;;56.60;;
10031;SDS011;5056;44.272;19.892;2023-02-15T07:09:12;84.00;;;57.67;;
10031;SDS011;5056;44.272;19.892;2023-02-15T07:11:48;90.77;;;60.30;;
10031;SDS011;5056;44.272;19.892;2023-02-15T07:14:32;80.53;;;55.10;;
10031;SDS011;5056;44.272;19.892;2023-02-15T07:17:05;82.10;;;55.87;;
10031;SDS011;5056;44.272;19.892;2023-02-15T07:19:34;78.67;;;54.53;;
10031;SDS011;5056;44.272;19.892;2023-02-15T07:22:02;80.43;;;53.83;;
10031;SDS011;5056;44.272;19.892;2023-02-15T07:24:52;105.73;;;63.33;;
10031;SDS011;5056;44.272;19.892;2023-02-15T07:27:19;109.10;;;65.43;;
10031;SDS011;5056;44.272;19.892;2023-02-15T07:29:47;117.50;;;71.57;;
10031;SDS011;5056;44.272;19.892;2023-02-15T07:32:13;134.53;;;80.50;;
10031;SDS011;5056;44.272;19.892;2023-02-15T07:34:40;121.80;;;67.70;;
10031;SDS011;5056;44.272;19.892;2023-02-15T07:37:09;100.17;;;60.33;;
10031;SDS011;5056;44.272;19.892;2023-02-15T07:39:35;115.13;;;69.93;;
10031;SDS011;5056;44.272;19.892;2023-02-15T07:42:04;125.57;;;75.00;;
10031;SDS011;5056;44.272;19.892;2023-02-15T07:44:31;141.17;;;87.07;;
10031;SDS011;5056;44.272;19.892;2023-02-15T07:46:58;125.13;;;81.50;;
10031;SDS011;5056;44.272;19.892;2023-02-15T07:49:25;150.10;;;93.30;;
10031;SDS011;5056;44.272;19.892;2023-02-15T07:51:53;144.83;;;88.90;;
10031;SDS011;5056;44.272;19.892;2023-02-15T07:54:20;140.67;;;85.60;;
10031;SDS011;5056;44.272;19.892;2023-02-15T07:56:49;129.73;;;86.20;;
10031;SDS011;5056;44.272;19.892;2023-02-15T07:59:17;127.60;;;86.77;;
10031;SDS011;5056;44.272;19.892;2023-02-15T08:01:44;124.07;;;85.80;;
10031;SDS011;5056;44.272;19.892;2023-02-15T08:04:11;94.60;;;66.10;;
10031;SDS011;5056;44.272;19.892;2023-02-15T08:06:38;63.87;;;47.13;;
10031;SDS011;5056;44.272;19.892;2023-02-15T08:09:05;46.37;;;37.07;;
10031;SDS011;5056;44.272;19.892;2023-02-15T08:11:34;35.93;;;28.93;;
10031;SDS011;5056;44.272;19.892;2023-02-15T08:14:06;36.33;;;29.60;;
10031;SDS011;5056;44.272;19.892;2023-02-15T08:16:36;24.33;;;21.63;;
10031;SDS011;5056;44.272;19.892;2023-02-15T08:19:04;30.67;;;23.67;;
10031;SDS011;5056;44.272;19.892;2023-02-15T08:21:33;28.83;;;25.23;;
10031;SDS011;5056;44.272;19.892;2023-02-15T08:24:01;29.60;;;23.57;;
10031;SDS011;5056;44.272;19.892;2023-02-15T08:26:30;26.23;;;19.47;;
10031;SDS011;5056;44.272;19.892;2023-02-15T08:28:57;24.83;;;20.47;;
10031;SDS011;5056;44.272;19.892;2023-02-15T08:31:26;27.00;;;21.70;;
10031;SDS011;5056;44.272;19.892;2023-02-15T08:33:54;23.20;;;20.23;;
10031;SDS011;5056;44.272;19.892;2023-02-15T08:36:22;26.23;;;22.40;;
10031;SDS011;5056;44.272;19.892;2023-02-15T08:38:51;24.60;;;20.30;;
10031;SDS011;5056;44.272;19.892;2023-02-15T08:41:20;24.97;;;19.80;;
10031;SDS011;5056;44.272;19.892;2023-02-15T08:43:55;25.77;;;19.07;;
10031;SDS011;5056;44.272;19.892;2023-02-15T08:46:23;21.73;;;19.43;;
10031;SDS011;5056;44.272;19.892;2023-02-15T08:48:51;20.90;;;18.10;;
10031;SDS011;5056;44.272;19.892;2023-02-15T08:51:23;19.83;;;17.47;;
10031;SDS011;5056;44.272;19.892;2023-02-15T08:53:52;21.37;;;18.13;;
10031;SDS011;5056;44.272;19.892;2023-02-15T08:56:21;20.73;;;18.10;;
10031;SDS011;5056;44.272;19.892;2023-02-15T08:58:52;22.63;;;18.43;;
10031;SDS011;5056;44.272;19.892;2023-02-15T09:01:19;24.50;;;20.03;;
10031;SDS011;5056;44.272;19.892;2023-02-15T09:03:47;20.37;;;18.13;;
10031;SDS011;5056;44.272;19.892;2023-02-15T09:06:35;22.80;;;19.73;;
10031;SDS011;5056;44.272;19.892;2023-02-15T09:09:05;21.90;;;18.47;;
10031;SDS011;5056;44.272;19.892;2023-02-15T09:11:33;20.87;;;18.60;;
10031;SDS011;5056;44.272;19.892;2023-02-15T09:14:02;20.60;;;18.20;;
10031;SDS011;5056;44.272;19.892;2023-02-15T09:16:31;23.57;;;19.90;;
10031;SDS011;5056;44.272;19.892;2023-02-15T09:19:00;21.37;;;18.70;;
10031;SDS011;5056;44.272;19.892;2023-02-15T09:21:29;22.03;;;18.17;;
10031;SDS011;5056;44.272;19.892;2023-02-15T09:24:09;20.80;;;17.60;;
10031;SDS011;5056;44.272;19.892;2023-02-15T09:26:54;22.43;;;19.97;;
10031;SDS011;5056;44.272;19.892;2023-02-15T09:29:29;21.63;;;18.60;;
10031;SDS011;5056;44.272;19.892;2023-02-15T09:31:56;21.57;;;17.43;;
10031;SDS011;5056;44.272;19.892;2023-02-15T09:34:23;24.60;;;20.40;;
10031;SDS011;5056;44.272;19.892;2023-02-15T09:36:51;22.83;;;19.43;;
10031;SDS011;5056;44.272;19.892;2023-02-15T09:39:23;21.97;;;18.63;;
10031;SDS011;5056;44.272;19.892;2023-02-15T09:41:58;21.07;;;18.70;;
10031;SDS011;5056;44.272;19.892;2023-02-15T09:44:57;20.80;;;18.23;;
10031;SDS011;5056;44.272;19.892;2023-02-15T09:47:37;21.70;;;18.30;;
10031;SDS011;5056;44.272;19.892;2023-02-15T09:50:27;20.90;;;17.37;;
10031;SDS011;5056;44.272;19.892;2023-02-15T09:53:06;22.27;;;19.20;;
10031;SDS011;5056;44.272;19.892;2023-02-15T09:55:51;34.60;;;25.67;;
10031;SDS011;5056;44.272;19.892;2023-02-15T09:58:23;24.73;;;21.40;;
10031;SDS011;5056;44.272;19.892;2023-02-15T10:00:57;23.53;;;20.73;;
10031;SDS011;5056;44.272;19.892;2023-02-15T10:03:35;23.07;;;20.37;;
10031;SDS011;5056;44.272;19.892;2023-02-15T10:12:06;23.83;;;19.73;;
10031;SDS011;5056;44.272;19.892;2023-02-15T10:28:38;24.53;;;19.53;;
10031;SDS011;5056;44.272;19.892;2023-02-15T10:35:25;25.50;;;21.13;;
10031;SDS011;5056;44.272;19.892;2023-02-15T10:41:50;27.40;;;21.83;;
10031;SDS011;5056;44.272;19.892;2023-02-15T10:59:41;32.40;;;24.43;;
10031;SDS011;5056;44.272;19.892;2023-02-15T11:13:11;29.97;;;24.63;;
10031;SDS011;5056;44.272;19.892;2023-02-15T11:45:58;26.93;;;21.03;;
10031;SDS011;5056;44.272;19.892;2023-02-15T11:57:59;27.20;;;22.83;;
10031;SDS011;5056;44.272;19.892;2023-02-15T12:23:01;23.37;;;19.97;;
10031;SDS011;5056;44.272;19.892;2023-02-15T12:26:23;28.57;;;21.07;;
10031;SDS011;5056;44.272;19.892;2023-02-15T12:32:34;22.63;;;18.27;;
10031;SDS011;5056;44.272;19.892;2023-02-15T12:35:28;22.10;;;17.80;;
10031;SDS011;5056;44.272;19.892;2023-02-15T13:08:10;36.97;;;23.43;;
10031;SDS011;5056;44.272;19.892;2023-02-15T13:10:39;27.73;;;19.77;;
10031;SDS011;5056;44.272;19.892;2023-02-15T13:13:09;24.90;;;19.63;;
10031;SDS011;5056;44.272;19.892;2023-02-15T13:15:37;22.93;;;19.03;;
10031;SDS011;5056;44.272;19.892;2023-02-15T13:18:10;30.67;;;21.87;;
10031;SDS011;5056;44.272;19.892;2023-02-15T13:20:40;24.97;;;18.90;;
10031;SDS011;5056;44.272;19.892;2023-02-15T13:26:16;22.93;;;19.03;;
10031;SDS011;5056;44.272;19.892;2023-02-15T13:28:47;26.27;;;20.47;;
10031;SDS011;5056;44.272;19.892;2023-02-15T13:34:40;23.33;;;20.23;;
10031;SDS011;5056;44.272;19.892;2023-02-15T13:37:15;23.70;;;19.70;;
10031;SDS011;5056;44.272;19.892;2023-02-15T13:39:45;33.63;;;23.63;;
10031;SDS011;5056;44.272;19.892;2023-02-15T13:42:16;43.00;;;30.60;;
10031;SDS011;5056;44.272;19.892;2023-02-15T13:44:52;29.63;;;21.67;;
10031;SDS011;5056;44.272;19.892;2023-02-15T13:47:25;58.87;;;41.67;;
10031;SDS011;5056;44.272;19.892;2023-02-15T13:50:06;33.70;;;25.90;;
10031;SDS011;5056;44.272;19.892;2023-02-15T13:52:57;29.03;;;22.70;;
10031;SDS011;5056;44.272;19.892;2023-02-15T13:55:38;47.93;;;35.93;;
10031;SDS011;5056;44.272;19.892;2023-02-15T14:01:08;22.03;;;17.87;;
10031;SDS011;5056;44.272;19.892;2023-02-15T14:06:47;31.67;;;22.30;;
10031;SDS011;5056;44.272;19.892;2023-02-15T14:09:28;25.47;;;21.13;;
10031;SDS011;5056;44.272;19.892;2023-02-15T14:12:44;24.53;;;20.13;;
10031;SDS011;5056;44.272;19.892;2023-02-15T14:15:20;23.67;;;18.80;;
10031;SDS011;5056;44.272;19.892;2023-02-15T14:18:02;26.00;;;20.97;;
10031;SDS011;5056;44.272;19.892;2023-02-15T14:20:41;27.83;;;21.00;;
10031;SDS011;5056;44.272;19.892;2023-02-15T14:23:18;24.07;;;18.70;;
10031;SDS011;5056;44.272;19.892;2023-02-15T14:25:55;23.47;;;19.57;;
10031;SDS011;5056;44.272;19.892;2023-02-15T14:28:27;25.60;;;19.30;;
10031;SDS011;5056;44.272;19.892;2023-02-15T14:30:55;29.10;;;23.47;;
10031;SDS011;5056;44.272;19.892;2023-02-15T14:33:33;27.07;;;21.77;;
10031;SDS011;5056;44.272;19.892;2023-02-15T14:36:01;25.73;;;20.67;;
10031;SDS011;5056;44.272;19.892;2023-02-15T14:38:36;27.70;;;23.37;;
10031;SDS011;5056;44.272;19.892;2023-02-15T14:41:13;26.17;;;20.27;;
10031;SDS011;5056;44.272;19.892;2023-02-15T14:46:29;44.93;;;35.43;;
10031;SDS011;5056;44.272;19.892;2023-02-15T14:49:15;33.10;;;24.73;;
10031;SDS011;5056;44.272;19.892;2023-02-15T14:52:04;34.30;;;27.23;;
10031;SDS011;5056;44.272;19.892;2023-02-15T15:03:12;37.27;;;29.63;;
10031;SDS011;5056;44.272;19.892;2023-02-15T15:05:48;37.10;;;26.83;;
10031;SDS011;5056;44.272;19.892;2023-02-15T15:08:21;40.63;;;28.80;;
10031;SDS011;5056;44.272;19.892;2023-02-15T15:10:51;35.30;;;27.13;;
10031;SDS011;5056;44.272;19.892;2023-02-15T15:13:35;58.37;;;45.10;;
10031;SDS011;5056;44.272;19.892;2023-02-15T15:16:26;45.80;;;38.27;;
10031;SDS011;5056;44.272;19.892;2023-02-15T15:18:56;31.90;;;25.50;;
10031;SDS011;5056;44.272;19.892;2023-02-15T15:24:47;31.20;;;22.10;;
10031;SDS011;5056;44.272;19.892;2023-02-15T15:33:30;26.87;;;20.73;;
10031;SDS011;5056;44.272;19.892;2023-02-15T15:49:55;27.00;;;22.67;;
10031;SDS011;5056;44.272;19.892;2023-02-15T15:55:14;30.63;;;24.07;;
10031;SDS011;5056;44.272;19.892;2023-02-15T15:57:44;31.97;;;24.30;;
10031;SDS011;5056;44.272;19.892;2023-02-15T16:00:23;35.93;;;25.77;;
10031;SDS011;5056;44.272;19.892;2023-02-15T16:02:56;52.77;;;38.77;;
10031;SDS011;5056;44.272;19.892;2023-02-15T16:05:25;48.60;;;32.93;;
10031;SDS011;5056;44.272;19.892;2023-02-15T16:07:53;41.17;;;30.33;;
10031;SDS011;5056;44.272;19.892;2023-02-15T16:10:21;46.47;;;35.07;;
10031;SDS011;5056;44.272;19.892;2023-02-15T16:12:52;39.87;;;30.67;;
10031;SDS011;5056;44.272;19.892;2023-02-15T16:15:23;43.83;;;32.67;;
10031;SDS011;5056;44.272;19.892;2023-02-15T16:17:52;41.20;;;31.53;;
10031;SDS011;5056;44.272;19.892;2023-02-15T16:20:25;39.37;;;29.13;;
10031;SDS011;5056;44.272;19.892;2023-02-15T16:23:00;40.60;;;32.17;;
10031;SDS011;5056;44.272;19.892;2023-02-15T16:25:40;56.00;;;41.17;;
10031;SDS011;5056;44.272;19.892;2023-02-15T16:28:11;60.03;;;43.13;;
10031;SDS011;5056;44.272;19.892;2023-02-15T16:30:39;56.63;;;39.37;;
10031;SDS011;5056;44.272;19.892;2023-02-15T16:33:08;58.23;;;42.57;;
10031;SDS011;5056;44.272;19.892;2023-02-15T16:35:38;61.83;;;44.90;;
10031;SDS011;5056;44.272;19.892;2023-02-15T16:38:09;66.43;;;49.47;;
10031;SDS011;5056;44.272;19.892;2023-02-15T16:40:41;58.63;;;43.93;;
10031;SDS011;5056;44.272;19.892;2023-02-15T16:43:15;61.87;;;44.80;;
10031;SDS011;5056;44.272;19.892;2023-02-15T16:45:44;110.10;;;70.33;;
10031;SDS011;5056;44.272;19.892;2023-02-15T16:48:13;115.17;;;73.23;;
10031;SDS011;5056;44.272;19.892;2023-02-15T16:50:48;110.83;;;70.60;;
10031;SDS011;5056;44.272;19.892;2023-02-15T16:53:18;112.17;;;72.30;;
10031;SDS011;5056;44.272;19.892;2023-02-15T16:55:50;111.13;;;70.93;;
10031;SDS011;5056;44.272;19.892;2023-02-15T16:58:21;89.37;;;59.87;;
10031;SDS011;5056;44.272;19.892;2023-02-15T17:00:56;90.87;;;56.30;;
10031;SDS011;5056;44.272;19.892;2023-02-15T17:03:24;81.63;;;53.50;;
10031;SDS011;5056;44.272;19.892;2023-02-15T17:05:58;78.80;;;49.93;;
10031;SDS011;5056;44.272;19.892;2023-02-15T17:08:28;75.63;;;50.20;;
10031;SDS011;5056;44.272;19.892;2023-02-15T17:11:08;80.90;;;50.47;;
10031;SDS011;5056;44.272;19.892;2023-02-15T17:16:46;82.73;;;56.70;;
10031;SDS011;5056;44.272;19.892;2023-02-15T17:19:16;85.57;;;58.30;;
10031;SDS011;5056;44.272;19.892;2023-02-15T17:21:51;92.33;;;59.53;;
10031;SDS011;5056;44.272;19.892;2023-02-15T17:24:20;90.57;;;57.60;;
10031;SDS011;5056;44.272;19.892;2023-02-15T17:26:53;130.17;;;81.67;;
10031;SDS011;5056;44.272;19.892;2023-02-15T17:29:26;180.20;;;105.67;;
10031;SDS011;5056;44.272;19.892;2023-02-15T17:31:58;146.43;;;87.30;;
10031;SDS011;5056;44.272;19.892;2023-02-15T17:34:41;140.67;;;85.23;;
10031;SDS011;5056;44.272;19.892;2023-02-15T17:37:23;147.00;;;85.53;;
10031;SDS011;5056;44.272;19.892;2023-02-15T17:39:51;164.17;;;84.77;;
10031;SDS011;5056;44.272;19.892;2023-02-15T17:42:18;164.23;;;89.37;;
10031;SDS011;5056;44.272;19.892;2023-02-15T17:44:45;183.67;;;94.67;;
10031;SDS011;5056;44.272;19.892;2023-02-15T17:47:13;172.73;;;94.70;;
10031;SDS011;5056;44.272;19.892;2023-02-15T17:49:41;166.80;;;94.10;;
10031;SDS011;5056;44.272;19.892;2023-02-15T17:52:09;164.90;;;98.07;;
10031;SDS011;5056;44.272;19.892;2023-02-15T17:54:41;168.83;;;102.67;;
10031;SDS011;5056;44.272;19.892;2023-02-15T17:57:26;165.50;;;105.43;;
10031;SDS011;5056;44.272;19.892;2023-02-15T17:59:53;165.13;;;103.20;;
10031;SDS011;5056;44.272;19.892;2023-02-15T18:02:37;166.17;;;103.73;;
10031;SDS011;5056;44.272;19.892;2023-02-15T18:05:22;158.53;;;99.50;;
10031;SDS011;5056;44.272;19.892;2023-02-15T18:08:09;159.23;;;100.43;;
10031;SDS011;5056;44.272;19.892;2023-02-15T18:10:57;172.70;;;106.03;;
10031;SDS011;5056;44.272;19.892;2023-02-15T18:13:41;192.03;;;116.17;;
10031;SDS011;5056;44.272;19.892;2023-02-15T18:16:10;173.43;;;108.23;;
10031;SDS011;5056;44.272;19.892;2023-02-15T18:18:39;160.00;;;98.10;;
10031;SDS011;5056;44.272;19.892;2023-02-15T18:21:06;160.93;;;98.73;;
10031;SDS011;5056;44.272;19.892;2023-02-15T18:23:35;162.67;;;100.17;;
10031;SDS011;5056;44.272;19.892;2023-02-15T18:26:05;150.97;;;91.73;;
10031;SDS011;5056;44.272;19.892;2023-02-15T18:28:32;138.43;;;84.53;;
10031;SDS011;5056;44.272;19.892;2023-02-15T18:30:59;148.47;;;88.40;;
10031;SDS011;5056;44.272;19.892;2023-02-15T18:33:28;145.73;;;89.87;;